THY250 LTFM-LTAN
Flight info
| Callsign | THY250 |
|---|---|
| Flight time | 0h 59m |
| Altitude | 37000 |
| Route | RATVU1D/35L RATVU UT35 DOKUB UT76 KFK UB545 HISAR |
| Aircraft | A320/M-SDE3FGHIRWY/LB1 |
Departure
| Time | 2026-04-17 21:30 |
|---|---|
| Airport | İstanbul Airport (LTFM) |
Arrival
| Time | 2026-04-17 22:29 |
|---|---|
| Airport | Konya Airport (LTAN) |
| Time | Latitude | Longitude | Altitude | Speed | Heading |
|---|---|---|---|---|---|
| 2026-04-17 21:09 | 41.26644 | 28.73448 | 314 ft | 0 kts | 72° |
| 2026-04-17 21:22 | 41.26642 | 28.73439 | 313 ft | 2 kts | 71° |
| 2026-04-17 21:22 | 41.26635 | 28.73414 | 312 ft | 3 kts | 69° |
| 2026-04-17 21:22 | 41.26628 | 28.73389 | 311 ft | 3 kts | 70° |
| 2026-04-17 21:22 | 41.26622 | 28.73363 | 312 ft | 3 kts | 83° |
| 2026-04-17 21:23 | 41.26622 | 28.73342 | 312 ft | 3 kts | 133° |
| 2026-04-17 21:23 | 41.26626 | 28.73337 | 313 ft | 0 kts | 160° |
| 2026-04-17 21:26 | 41.26607 | 28.73345 | 312 ft | 7 kts | 160° |
| 2026-04-17 21:26 | 41.26549 | 28.73373 | 313 ft | 11 kts | 160° |
| 2026-04-17 21:27 | 41.26464 | 28.73412 | 313 ft | 15 kts | 161° |
| 2026-04-17 21:27 | 41.26359 | 28.73459 | 313 ft | 17 kts | 161° |
| 2026-04-17 21:27 | 41.26247 | 28.73494 | 313 ft | 16 kts | 193° |
| 2026-04-17 21:27 | 41.26222 | 28.73368 | 313 ft | 15 kts | 267° |
| 2026-04-17 21:28 | 41.26218 | 28.73219 | 313 ft | 17 kts | 269° |
| 2026-04-17 21:28 | 41.26218 | 28.73048 | 312 ft | 19 kts | 270° |
| 2026-04-17 21:28 | 41.26217 | 28.72862 | 313 ft | 21 kts | 269° |
| 2026-04-17 21:28 | 41.26213 | 28.72665 | 313 ft | 23 kts | 269° |
| 2026-04-17 21:29 | 41.26231 | 28.72532 | 313 ft | 14 kts | 317° |
| 2026-04-17 21:29 | 41.26255 | 28.72524 | 314 ft | 0 kts | 356° |
| 2026-04-17 21:29 | 41.26288 | 28.72523 | 314 ft | 22 kts | 358° |
| 2026-04-17 21:29 | 41.26668 | 28.72519 | 310 ft | 84 kts | 359° |
| 2026-04-17 21:30 | 41.27428 | 28.72498 | 288 ft | 132 kts | 359° |
| 2026-04-17 21:30 | 41.28454 | 28.72535 | 463 ft | 157 kts | 5° |
| 2026-04-17 21:30 | 41.29583 | 28.72613 | 935 ft | 168 kts | 6° |
| 2026-04-17 21:30 | 41.30763 | 28.72645 | 1623 ft | 169 kts | 6° |
| 2026-04-17 21:31 | 41.31946 | 28.72622 | 2230 ft | 175 kts | 6° |
| 2026-04-17 21:31 | 41.33236 | 28.72607 | 2542 ft | 196 kts | 6° |
| 2026-04-17 21:31 | 41.34681 | 28.72601 | 2899 ft | 218 kts | 6° |
| 2026-04-17 21:31 | 41.36233 | 28.72589 | 3594 ft | 226 kts | 4° |
| 2026-04-17 21:32 | 41.37786 | 28.71970 | 4336 ft | 250 kts | 332° |
| 2026-04-17 21:32 | 41.38920 | 28.70089 | 4924 ft | 284 kts | 297° |
| 2026-04-17 21:32 | 41.39222 | 28.67423 | 5694 ft | 299 kts | 271° |
| 2026-04-17 21:32 | 41.39013 | 28.64647 | 6536 ft | 303 kts | 263° |
| 2026-04-17 21:33 | 41.38668 | 28.61877 | 7375 ft | 304 kts | 262° |
| 2026-04-17 21:33 | 41.38092 | 28.59170 | 8169 ft | 308 kts | 242° |
| 2026-04-17 21:33 | 41.36779 | 28.56936 | 8985 ft | 308 kts | 219° |
| 2026-04-17 21:33 | 41.34950 | 28.55501 | 9772 ft | 306 kts | 195° |
| 2026-04-17 21:34 | 41.32862 | 28.55104 | 10369 ft | 309 kts | 179° |
| 2026-04-17 21:34 | 41.30630 | 28.55083 | 10540 ft | 332 kts | 178° |
| 2026-04-17 21:34 | 41.25880 | 28.56020 | 11237 ft | 354 kts | 158° |
| 2026-04-17 21:35 | 41.23664 | 28.57448 | 11839 ft | 355 kts | 146° |
| 2026-04-17 21:35 | 41.21697 | 28.59444 | 12427 ft | 357 kts | 135° |
| 2026-04-17 21:35 | 41.19893 | 28.61743 | 13040 ft | 361 kts | 134° |
| 2026-04-17 21:35 | 41.18070 | 28.64066 | 13644 ft | 365 kts | 135° |
| 2026-04-17 21:36 | 41.16231 | 28.66410 | 14193 ft | 368 kts | 135° |
| 2026-04-17 21:36 | 41.14379 | 28.68776 | 14761 ft | 371 kts | 135° |
| 2026-04-17 21:36 | 41.12596 | 28.71256 | 15296 ft | 373 kts | 128° |
| 2026-04-17 21:36 | 41.10873 | 28.73827 | 15779 ft | 376 kts | 140° |
| 2026-04-17 21:37 | 41.08571 | 28.75454 | 16263 ft | 380 kts | 163° |
| 2026-04-17 21:37 | 41.05976 | 28.76243 | 16797 ft | 383 kts | 167° |
| 2026-04-17 21:37 | 41.03366 | 28.77040 | 17339 ft | 386 kts | 166° |
| 2026-04-17 21:37 | 41.00752 | 28.77899 | 17884 ft | 389 kts | 165° |
| 2026-04-17 21:38 | 40.98125 | 28.78802 | 18381 ft | 392 kts | 165° |
| 2026-04-17 21:38 | 40.95518 | 28.79717 | 18874 ft | 394 kts | 165° |
| 2026-04-17 21:38 | 40.92866 | 28.80650 | 19370 ft | 396 kts | 165° |
| 2026-04-17 21:38 | 40.90201 | 28.81580 | 19885 ft | 397 kts | 165° |
| 2026-04-17 21:39 | 40.87535 | 28.82501 | 20393 ft | 399 kts | 165° |
| 2026-04-17 21:39 | 40.84827 | 28.83429 | 20887 ft | 400 kts | 165° |
| 2026-04-17 21:39 | 40.82128 | 28.84347 | 21419 ft | 400 kts | 164° |
| 2026-04-17 21:39 | 40.79425 | 28.85261 | 21889 ft | 402 kts | 164° |
| 2026-04-17 21:40 | 40.76711 | 28.86182 | 22360 ft | 403 kts | 164° |
| 2026-04-17 21:40 | 40.73991 | 28.87111 | 22819 ft | 404 kts | 164° |
| 2026-04-17 21:40 | 40.71260 | 28.88042 | 23249 ft | 407 kts | 165° |
| 2026-04-17 21:40 | 40.68496 | 28.88981 | 23573 ft | 411 kts | 165° |
| 2026-04-17 21:41 | 40.65719 | 28.89918 | 23949 ft | 411 kts | 165° |
| 2026-04-17 21:41 | 40.62945 | 28.90855 | 24331 ft | 413 kts | 165° |
| 2026-04-17 21:41 | 40.60157 | 28.91794 | 24665 ft | 415 kts | 164° |
| 2026-04-17 21:41 | 40.57346 | 28.92766 | 24880 ft | 421 kts | 162° |
| 2026-04-17 21:42 | 40.54614 | 28.94171 | 25153 ft | 423 kts | 153° |
| 2026-04-17 21:42 | 40.52073 | 28.96139 | 25507 ft | 423 kts | 146° |
| 2026-04-17 21:42 | 40.49610 | 28.98264 | 25906 ft | 424 kts | 146° |
| 2026-04-17 21:42 | 40.47132 | 29.00387 | 26238 ft | 426 kts | 146° |
| 2026-04-17 21:43 | 40.44678 | 29.02475 | 26624 ft | 427 kts | 147° |
| 2026-04-17 21:43 | 40.42173 | 29.04600 | 26893 ft | 431 kts | 147° |
| 2026-04-17 21:43 | 40.39644 | 29.06741 | 27188 ft | 433 kts | 147° |
| 2026-04-17 21:43 | 40.37105 | 29.08892 | 27514 ft | 436 kts | 146° |
| 2026-04-17 21:44 | 40.34545 | 29.11062 | 27752 ft | 440 kts | 146° |
| 2026-04-17 21:44 | 40.31967 | 29.13251 | 28065 ft | 442 kts | 146° |
| 2026-04-17 21:44 | 40.29384 | 29.15443 | 28494 ft | 442 kts | 146° |
| 2026-04-17 21:44 | 40.26807 | 29.17627 | 28947 ft | 441 kts | 146° |
| 2026-04-17 21:45 | 40.24236 | 29.19803 | 29406 ft | 440 kts | 147° |
| 2026-04-17 21:45 | 40.21667 | 29.21976 | 29865 ft | 439 kts | 147° |
| 2026-04-17 21:45 | 40.19070 | 29.24069 | 30253 ft | 438 kts | 152° |
| 2026-04-17 21:45 | 40.16287 | 29.25673 | 30658 ft | 437 kts | 159° |
| 2026-04-17 21:46 | 40.13438 | 29.27019 | 31157 ft | 433 kts | 159° |
| 2026-04-17 21:46 | 40.10630 | 29.28350 | 31767 ft | 426 kts | 159° |
| 2026-04-17 21:46 | 40.07861 | 29.29665 | 32327 ft | 421 kts | 159° |
| 2026-04-17 21:46 | 40.05115 | 29.30971 | 32804 ft | 419 kts | 159° |
| 2026-04-17 21:47 | 40.02387 | 29.32270 | 33265 ft | 417 kts | 159° |
| 2026-04-17 21:47 | 39.99666 | 29.33563 | 33702 ft | 415 kts | 159° |
| 2026-04-17 21:47 | 39.96957 | 29.34849 | 34049 ft | 414 kts | 159° |
| 2026-04-17 21:47 | 39.94256 | 29.36128 | 34378 ft | 413 kts | 159° |
| 2026-04-17 21:48 | 39.91554 | 29.37407 | 34662 ft | 413 kts | 159° |
| 2026-04-17 21:48 | 39.88860 | 29.38722 | 34862 ft | 415 kts | 158° |
| 2026-04-17 21:48 | 39.86182 | 29.40142 | 35071 ft | 416 kts | 156° |
| 2026-04-17 21:48 | 39.83524 | 29.41628 | 35294 ft | 417 kts | 156° |
| 2026-04-17 21:49 | 39.80864 | 29.43147 | 35539 ft | 418 kts | 156° |
| 2026-04-17 21:49 | 39.78202 | 29.44663 | 35774 ft | 418 kts | 156° |
| 2026-04-17 21:49 | 39.75528 | 29.46166 | 36013 ft | 419 kts | 156° |
| 2026-04-17 21:49 | 39.72845 | 29.47652 | 36235 ft | 419 kts | 156° |
| 2026-04-17 21:50 | 39.70187 | 29.49110 | 36447 ft | 420 kts | 157° |
| 2026-04-17 21:50 | 39.67490 | 29.50583 | 36679 ft | 421 kts | 156° |
| 2026-04-17 21:50 | 39.64785 | 29.52055 | 36782 ft | 424 kts | 157° |
| 2026-04-17 21:51 | 39.59246 | 29.54944 | 36792 ft | 433 kts | 158° |
| 2026-04-17 21:51 | 39.53590 | 29.57718 | 36788 ft | 436 kts | 159° |
| 2026-04-17 21:52 | 39.47916 | 29.60489 | 36781 ft | 436 kts | 159° |
| 2026-04-17 21:52 | 39.42253 | 29.63310 | 36771 ft | 436 kts | 158° |
| 2026-04-17 21:53 | 39.36588 | 29.66148 | 36775 ft | 437 kts | 158° |
| 2026-04-17 21:53 | 39.30918 | 29.68969 | 36775 ft | 437 kts | 158° |
| 2026-04-17 21:54 | 39.25229 | 29.71780 | 36778 ft | 437 kts | 159° |
| 2026-04-17 21:54 | 39.19546 | 29.74587 | 36784 ft | 437 kts | 158° |
| 2026-04-17 21:55 | 39.13864 | 29.77387 | 36783 ft | 438 kts | 159° |
| 2026-04-17 21:55 | 39.08210 | 29.80165 | 36780 ft | 438 kts | 159° |
| 2026-04-17 21:56 | 39.02520 | 29.82968 | 36780 ft | 438 kts | 158° |
| 2026-04-17 21:56 | 38.96838 | 29.85770 | 36782 ft | 437 kts | 158° |
| 2026-04-17 21:56 | 38.94137 | 29.87552 | 36779 ft | 437 kts | 146° |
| 2026-04-17 21:57 | 38.91784 | 29.90008 | 36778 ft | 437 kts | 134° |
| 2026-04-17 21:57 | 38.89876 | 29.93036 | 36774 ft | 437 kts | 122° |
| 2026-04-17 21:57 | 38.88496 | 29.96510 | 36773 ft | 438 kts | 111° |
| 2026-04-17 21:57 | 38.87703 | 30.00276 | 36768 ft | 439 kts | 100° |
| 2026-04-17 21:58 | 38.87202 | 30.04147 | 36766 ft | 440 kts | 101° |
| 2026-04-17 21:58 | 38.86180 | 30.11896 | 36768 ft | 441 kts | 101° |
| 2026-04-17 21:59 | 38.85143 | 30.19671 | 36763 ft | 443 kts | 101° |
| 2026-04-17 21:59 | 38.84101 | 30.27466 | 36762 ft | 444 kts | 101° |
| 2026-04-17 22:00 | 38.83053 | 30.35269 | 36773 ft | 445 kts | 101° |
| 2026-04-17 22:00 | 38.81994 | 30.43087 | 36775 ft | 445 kts | 102° |
| 2026-04-17 22:01 | 38.80806 | 30.50863 | 36777 ft | 443 kts | 109° |
| 2026-04-17 22:01 | 38.78144 | 30.57855 | 36784 ft | 439 kts | 127° |
| 2026-04-17 22:02 | 38.74212 | 30.63832 | 36776 ft | 439 kts | 132° |
| 2026-04-17 22:02 | 38.70197 | 30.69728 | 36772 ft | 439 kts | 132° |
| 2026-04-17 22:03 | 38.66170 | 30.75622 | 36772 ft | 440 kts | 132° |
| 2026-04-17 22:03 | 38.62147 | 30.81516 | 36773 ft | 440 kts | 132° |
| 2026-04-17 22:04 | 38.58112 | 30.87406 | 36777 ft | 440 kts | 132° |
| 2026-04-17 22:04 | 38.54077 | 30.93292 | 36780 ft | 440 kts | 132° |
| 2026-04-17 22:05 | 38.50061 | 30.99133 | 36777 ft | 441 kts | 133° |
| 2026-04-17 22:05 | 38.46014 | 31.05004 | 36784 ft | 441 kts | 133° |
| 2026-04-17 22:06 | 38.41955 | 31.10844 | 35767 ft | 445 kts | 133° |
| 2026-04-17 22:06 | 38.39884 | 31.13800 | 35121 ft | 446 kts | 133° |
| 2026-04-17 22:06 | 38.37808 | 31.16761 | 34325 ft | 450 kts | 133° |
| 2026-04-17 22:06 | 38.35724 | 31.19739 | 33804 ft | 448 kts | 132° |
| 2026-04-17 22:07 | 38.33649 | 31.22703 | 33048 ft | 448 kts | 132° |
| 2026-04-17 22:07 | 38.31574 | 31.25670 | 32217 ft | 450 kts | 132° |
| 2026-04-17 22:07 | 38.29494 | 31.28642 | 31204 ft | 447 kts | 131° |
| 2026-04-17 22:07 | 38.27422 | 31.31594 | 30087 ft | 444 kts | 131° |
| 2026-04-17 22:08 | 38.25407 | 31.34453 | 29745 ft | 425 kts | 131° |
| 2026-04-17 22:08 | 38.23443 | 31.37241 | 29172 ft | 421 kts | 131° |
| 2026-04-17 22:08 | 38.21501 | 31.39998 | 28624 ft | 416 kts | 131° |
| 2026-04-17 22:08 | 38.19582 | 31.42719 | 28094 ft | 411 kts | 131° |
| 2026-04-17 22:09 | 38.17681 | 31.45414 | 27557 ft | 407 kts | 131° |
| 2026-04-17 22:09 | 38.15800 | 31.48082 | 27030 ft | 403 kts | 131° |
| 2026-04-17 22:09 | 38.13985 | 31.50707 | 26517 ft | 399 kts | 127° |
| 2026-04-17 22:09 | 38.12467 | 31.53644 | 25980 ft | 397 kts | 118° |
| 2026-04-17 22:10 | 38.11417 | 31.56872 | 25422 ft | 397 kts | 108° |
| 2026-04-17 22:10 | 38.10855 | 31.60297 | 24885 ft | 397 kts | 99° |
| 2026-04-17 22:10 | 38.10481 | 31.63769 | 24346 ft | 396 kts | 99° |
| 2026-04-17 22:10 | 38.10097 | 31.67223 | 23824 ft | 394 kts | 99° |
| 2026-04-17 22:11 | 38.09707 | 31.70659 | 23281 ft | 394 kts | 99° |
| 2026-04-17 22:11 | 38.09440 | 31.72983 | 22894 ft | 392 kts | 99° |
| 2026-04-17 22:11 | 38.09053 | 31.76349 | 22406 ft | 389 kts | 99° |
| 2026-04-17 22:11 | 38.08665 | 31.79731 | 21926 ft | 385 kts | 99° |
| 2026-04-17 22:12 | 38.08282 | 31.83085 | 21443 ft | 382 kts | 100° |
| 2026-04-17 22:12 | 38.07902 | 31.86407 | 20980 ft | 379 kts | 100° |
| 2026-04-17 22:12 | 38.07524 | 31.89703 | 20504 ft | 376 kts | 100° |
| 2026-04-17 22:12 | 38.07150 | 31.92971 | 20037 ft | 373 kts | 100° |
| 2026-04-17 22:13 | 38.06776 | 31.96225 | 19578 ft | 371 kts | 100° |
| 2026-04-17 22:13 | 38.06408 | 31.99452 | 19108 ft | 368 kts | 100° |
| 2026-04-17 22:13 | 38.06038 | 32.02658 | 18623 ft | 366 kts | 100° |
| 2026-04-17 22:13 | 38.05669 | 32.05848 | 18143 ft | 365 kts | 100° |
| 2026-04-17 22:14 | 38.05285 | 32.09018 | 17600 ft | 362 kts | 104° |
| 2026-04-17 22:14 | 38.04538 | 32.12038 | 17113 ft | 356 kts | 117° |
| 2026-04-17 22:14 | 38.03326 | 32.14735 | 16615 ft | 350 kts | 128° |
| 2026-04-17 22:14 | 38.01720 | 32.17030 | 16066 ft | 347 kts | 140° |
| 2026-04-17 22:15 | 37.99802 | 32.18857 | 15532 ft | 344 kts | 148° |
| 2026-04-17 22:15 | 37.97817 | 32.20539 | 14997 ft | 343 kts | 148° |
| 2026-04-17 22:15 | 37.95833 | 32.22221 | 14457 ft | 343 kts | 148° |
| 2026-04-17 22:15 | 37.93878 | 32.23877 | 13921 ft | 342 kts | 148° |
| 2026-04-17 22:16 | 37.91874 | 32.25581 | 13338 ft | 342 kts | 148° |
| 2026-04-17 22:16 | 37.89903 | 32.27257 | 12771 ft | 340 kts | 147° |
| 2026-04-17 22:16 | 37.87971 | 32.28899 | 12237 ft | 337 kts | 148° |
| 2026-04-17 22:16 | 37.86032 | 32.30545 | 11702 ft | 335 kts | 148° |
| 2026-04-17 22:17 | 37.84103 | 32.32180 | 11169 ft | 333 kts | 148° |
| 2026-04-17 22:17 | 37.82181 | 32.33808 | 10634 ft | 331 kts | 148° |
| 2026-04-17 22:17 | 37.80271 | 32.35426 | 10254 ft | 325 kts | 148° |
| 2026-04-17 22:17 | 37.78434 | 32.36984 | 10132 ft | 312 kts | 148° |
| 2026-04-17 22:18 | 37.76668 | 32.38476 | 10004 ft | 300 kts | 148° |
| 2026-04-17 22:18 | 37.74974 | 32.39932 | 9892 ft | 290 kts | 144° |
| 2026-04-17 22:18 | 37.73733 | 32.41883 | 9768 ft | 287 kts | 115° |
| 2026-04-17 22:18 | 37.73485 | 32.44372 | 9491 ft | 294 kts | 84° |
| 2026-04-17 22:19 | 37.74340 | 32.46727 | 9122 ft | 303 kts | 51° |
| 2026-04-17 22:19 | 37.76086 | 32.48224 | 8769 ft | 309 kts | 18° |
| 2026-04-17 22:19 | 37.78209 | 32.48639 | 8262 ft | 312 kts | 7° |
| 2026-04-17 22:19 | 37.80353 | 32.49204 | 7415 ft | 317 kts | 18° |
| 2026-04-17 22:20 | 37.82432 | 32.50057 | 6602 ft | 320 kts | 20° |
| 2026-04-17 22:20 | 37.84564 | 32.50906 | 5908 ft | 319 kts | 18° |
| 2026-04-17 22:20 | 37.86657 | 32.51690 | 5461 ft | 308 kts | 17° |
| 2026-04-17 22:20 | 37.88677 | 32.52448 | 5052 ft | 297 kts | 17° |
| 2026-04-17 22:21 | 37.90623 | 32.53184 | 4632 ft | 286 kts | 16° |
| 2026-04-17 22:21 | 37.92459 | 32.53881 | 4234 ft | 263 kts | 16° |
| 2026-04-17 22:21 | 37.94154 | 32.54523 | 3902 ft | 248 kts | 16° |
| 2026-04-17 22:21 | 37.95767 | 32.55136 | 3585 ft | 236 kts | 17° |
| 2026-04-17 22:22 | 37.97285 | 32.55734 | 3426 ft | 219 kts | 17° |
| 2026-04-17 22:22 | 37.98707 | 32.56298 | 3872 ft | 211 kts | 17° |
| 2026-04-17 22:22 | 38.00105 | 32.56854 | 4325 ft | 211 kts | 18° |
| 2026-04-17 22:22 | 38.01517 | 32.57462 | 4830 ft | 218 kts | 20° |
| 2026-04-17 22:23 | 38.02968 | 32.58153 | 4750 ft | 219 kts | 21° |
| 2026-04-17 22:23 | 38.04404 | 32.58830 | 5241 ft | 222 kts | 21° |
| 2026-04-17 22:23 | 38.05874 | 32.59524 | 5409 ft | 227 kts | 22° |
| 2026-04-17 22:23 | 38.07337 | 32.60270 | 5470 ft | 226 kts | 25° |
| 2026-04-17 22:24 | 38.08711 | 32.61218 | 5677 ft | 226 kts | 39° |
| 2026-04-17 22:24 | 38.09927 | 32.62501 | 5761 ft | 230 kts | 41° |
| 2026-04-17 22:24 | 38.11358 | 32.63376 | 5934 ft | 238 kts | 14° |
| 2026-04-17 22:24 | 38.12994 | 32.63317 | 5976 ft | 240 kts | 339° |
| 2026-04-17 22:25 | 38.14295 | 32.62066 | 5593 ft | 237 kts | 295° |
| 2026-04-17 22:25 | 38.14579 | 32.60121 | 5401 ft | 220 kts | 251° |
| 2026-04-17 22:25 | 38.13768 | 32.58655 | 5462 ft | 199 kts | 205° |
| 2026-04-17 22:25 | 38.12454 | 32.58412 | 5503 ft | 189 kts | 168° |
| 2026-04-17 22:26 | 38.11261 | 32.58770 | 5584 ft | 162 kts | 169° |
| 2026-04-17 22:26 | 38.10214 | 32.58984 | 5740 ft | 146 kts | 173° |
| 2026-04-17 22:26 | 38.09224 | 32.59110 | 5818 ft | 140 kts | 175° |
| 2026-04-17 22:26 | 38.08264 | 32.59186 | 5717 ft | 138 kts | 178° |
| 2026-04-17 22:27 | 38.07303 | 32.59104 | 5521 ft | 140 kts | 186° |
| 2026-04-17 22:27 | 38.06337 | 32.58905 | 5198 ft | 141 kts | 190° |
| 2026-04-17 22:27 | 38.05373 | 32.58645 | 4903 ft | 142 kts | 192° |
| 2026-04-17 22:27 | 38.04410 | 32.58367 | 4643 ft | 142 kts | 193° |
| 2026-04-17 22:28 | 38.03443 | 32.58075 | 4266 ft | 144 kts | 196° |
| 2026-04-17 22:28 | 38.02472 | 32.57700 | 3933 ft | 147 kts | 197° |
| 2026-04-17 22:28 | 38.01467 | 32.57318 | 3770 ft | 153 kts | 198° |
| 2026-04-17 22:28 | 38.00445 | 32.56916 | 3622 ft | 155 kts | 195° |
| 2026-04-17 22:29 | 37.99412 | 32.56516 | 3446 ft | 156 kts | 197° |
| 2026-04-17 22:29 | 37.98445 | 32.56153 | 3380 ft | 123 kts | 197° |
| 2026-04-17 22:29 | 37.97923 | 32.55951 | 3380 ft | 38 kts | 197° |
| 2026-04-17 22:29 | 37.97883 | 32.55936 | 3379 ft | 0 kts | 197° |
| 2026-04-17 22:30 | 37.98522 | 32.57574 | 3387 ft | 0 kts | 110° |